createdAt,value
2023-02-11T00:01:48.965Z,10.60
2023-02-11T00:05:17.946Z,10.62
2023-02-11T00:08:47.202Z,10.64
2023-02-11T00:12:16.268Z,10.66
2023-02-11T00:15:45.064Z,10.66
2023-02-11T00:19:14.309Z,10.66
2023-02-11T00:22:43.390Z,10.65
2023-02-11T00:26:02.295Z,10.65
2023-02-11T00:29:31.913Z,10.65
2023-02-11T00:32:51.494Z,10.65
2023-02-11T00:36:14.173Z,10.65
2023-02-11T00:39:43.085Z,10.64
2023-02-11T00:43:12.366Z,10.63
2023-02-11T00:46:41.895Z,10.61
2023-02-11T00:50:11.482Z,10.59
2023-02-11T00:53:40.143Z,10.56
2023-02-11T00:57:09.711Z,10.52
2023-02-11T01:00:38.401Z,10.47
2023-02-11T01:04:07.757Z,10.43
2023-02-11T01:08:09.018Z,10.40
2023-02-11T01:11:27.366Z,10.35
2023-02-11T01:14:56.429Z,10.31
2023-02-11T01:18:25.941Z,10.26
2023-02-11T01:21:55.145Z,10.16
2023-02-11T01:25:24.616Z,10.06
2023-02-11T01:28:53.862Z,9.96
2023-02-11T01:32:06.510Z,9.86
2023-02-11T01:35:35.907Z,9.78
2023-02-11T01:39:05.068Z,9.69
2023-02-11T01:42:34.305Z,9.60
2023-02-11T01:46:01.675Z,9.51
2023-02-11T01:49:37.320Z,9.43
2023-02-11T01:53:18.838Z,9.36
2023-02-11T01:56:53.578Z,9.28
2023-02-11T02:00:26.064Z,9.18
2023-02-11T02:03:55.730Z,9.11
2023-02-11T02:07:30.946Z,9.03
2023-02-11T02:11:00.403Z,8.94
2023-02-11T02:14:32.498Z,8.84
2023-02-11T02:18:08.616Z,8.77
2023-02-11T02:21:39.502Z,8.72
2023-02-11T02:25:26.673Z,8.67
2023-02-11T02:29:01.859Z,8.61
2023-02-11T02:32:37.162Z,8.53
2023-02-11T02:36:18.500Z,8.46
2023-02-11T02:39:53.871Z,8.39
2023-02-11T02:43:26.029Z,8.33
2023-02-11T02:46:57.744Z,8.26
2023-02-11T02:50:27.255Z,8.19
2023-02-11T02:54:14.720Z,8.14
2023-02-11T02:57:46.732Z,8.08
2023-02-11T03:01:21.936Z,8.04
2023-02-11T03:04:54.568Z,7.98
2023-02-11T03:08:24.591Z,7.93
2023-02-11T03:11:54.329Z,7.90
2023-02-11T03:15:24.440Z,7.87
2023-02-11T03:18:52.258Z,7.85
2023-02-11T03:22:21.538Z,7.84
2023-02-11T03:25:51.014Z,7.84
2023-02-11T03:29:26.534Z,7.87
2023-02-11T03:32:55.710Z,7.91
2023-02-11T03:36:33.875Z,7.94
2023-02-11T03:40:02.503Z,7.95
2023-02-11T03:43:25.054Z,7.98
2023-02-11T03:46:54.264Z,7.99
2023-02-11T03:50:13.649Z,8.02
2023-02-11T03:53:43.127Z,8.03
2023-02-11T03:57:03.787Z,8.04
2023-02-11T04:00:33.071Z,8.05
2023-02-11T04:04:01.946Z,8.06
2023-02-11T04:07:31.332Z,8.07
2023-02-11T04:11:00.408Z,8.10
2023-02-11T04:14:18.584Z,8.12
2023-02-11T04:17:47.527Z,8.15
2023-02-11T04:21:16.451Z,8.19
2023-02-11T04:24:45.736Z,8.22
2023-02-11T04:28:14.531Z,8.25
2023-02-11T04:31:44.058Z,8.28
2023-02-11T04:35:13.875Z,8.31
2023-02-11T04:38:42.645Z,8.33
2023-02-11T04:42:11.759Z,8.34
2023-02-11T04:45:40.885Z,8.36
2023-02-11T04:49:09.652Z,8.39
2023-02-11T04:52:38.871Z,8.41
2023-02-11T04:56:45.747Z,8.44
2023-02-11T04:59:57.634Z,8.46
2023-02-11T05:03:25.526Z,8.49
2023-02-11T05:06:54.218Z,8.52
2023-02-11T05:10:14.108Z,8.54
2023-02-11T05:13:43.727Z,8.53
2023-02-11T05:17:13.063Z,8.53
2023-02-11T05:20:42.294Z,8.53
2023-02-11T05:24:11.559Z,8.54
2023-02-11T05:27:40.545Z,8.56
2023-02-11T05:31:09.919Z,8.56
2023-02-11T05:34:39.161Z,8.55
2023-02-11T05:38:08.784Z,8.56
2023-02-11T05:41:36.694Z,8.57
2023-02-11T05:45:15.320Z,8.57
2023-02-11T05:48:44.209Z,8.56
2023-02-11T05:52:13.165Z,8.55
2023-02-11T05:55:42.018Z,8.54
2023-02-11T05:59:10.818Z,8.53
2023-02-11T06:02:40.173Z,8.51
2023-02-11T06:05:53.380Z,8.51
2023-02-11T06:09:23.832Z,8.50
2023-02-11T06:12:55.494Z,8.48
2023-02-11T06:16:22.941Z,8.48
2023-02-11T06:19:51.650Z,8.47
2023-02-11T06:23:23.696Z,8.48
2023-02-11T06:26:52.489Z,8.49
2023-02-11T06:30:24.675Z,8.50
2023-02-11T06:33:46.536Z,8.50
2023-02-11T06:37:15.952Z,8.49
2023-02-11T06:40:44.662Z,8.47
2023-02-11T06:44:13.622Z,8.47
2023-02-11T06:47:43.130Z,8.45
2023-02-11T06:51:12.884Z,8.43
2023-02-11T06:54:41.894Z,8.40
2023-02-11T06:58:10.847Z,8.38
2023-02-11T07:01:40.222Z,8.37
2023-02-11T07:04:56.049Z,8.34
2023-02-11T07:08:24.793Z,8.29
2023-02-11T07:11:56.098Z,8.24
2023-02-11T07:15:25.009Z,8.20
2023-02-11T07:18:53.866Z,8.16
2023-02-11T07:22:22.645Z,8.14
2023-02-11T07:25:51.621Z,8.10
2023-02-11T07:29:20.792Z,8.05
2023-02-11T07:32:49.531Z,8.02
2023-02-11T07:36:18.240Z,7.98
2023-02-11T07:39:47.590Z,7.94
2023-02-11T07:43:16.327Z,7.88
2023-02-11T07:46:45.188Z,7.82
2023-02-11T07:50:14.279Z,7.77
2023-02-11T07:53:44.110Z,7.73
2023-02-11T07:57:12.974Z,7.70
2023-02-11T08:04:58.554Z,7.71
2023-02-11T08:09:06.459Z,7.68
2023-02-11T08:12:17.658Z,7.66
2023-02-11T08:15:47.065Z,7.65
2023-02-11T08:19:17.245Z,7.65
2023-02-11T08:22:46.702Z,7.65
2023-02-11T08:26:21.659Z,7.65
2023-02-11T08:29:50.361Z,7.65
2023-02-11T08:33:19.688Z,7.68
2023-02-11T08:36:51.459Z,7.72
2023-02-11T08:40:20.423Z,7.75
2023-02-11T08:43:49.164Z,7.76
2023-02-11T08:47:18.537Z,7.79
2023-02-11T08:50:33.328Z,7.81
2023-02-11T08:54:05.133Z,7.81
2023-02-11T08:57:34.948Z,7.81
2023-02-11T09:01:04.343Z,7.81
2023-02-11T09:04:38.119Z,7.82
2023-02-11T09:08:07.468Z,7.83
2023-02-11T09:11:36.956Z,7.84
2023-02-11T09:15:05.825Z,7.82
2023-02-11T09:18:35.416Z,7.79
2023-02-11T09:22:04.741Z,7.76
2023-02-11T09:25:34.302Z,7.73
2023-02-11T09:29:03.468Z,7.68
2023-02-11T09:32:22.736Z,7.64
2023-02-11T09:35:51.493Z,7.61
2023-02-11T09:39:23.283Z,7.58
2023-02-11T09:43:01.760Z,7.55
2023-02-11T09:46:31.775Z,7.54
2023-02-11T09:50:00.542Z,7.53
2023-02-11T09:53:32.728Z,7.50
2023-02-11T09:57:04.650Z,7.49
2023-02-11T10:00:33.974Z,7.49
2023-02-11T10:04:24.936Z,7.49
2023-02-11T10:07:55.603Z,7.51
2023-02-11T10:11:35.306Z,7.50
2023-02-11T10:15:09.668Z,7.51
2023-02-11T10:18:47.712Z,7.53
2023-02-11T10:22:26.699Z,7.52
2023-02-11T10:26:05.168Z,7.49
2023-02-11T10:29:34.250Z,7.46
2023-02-11T10:33:09.363Z,7.41
2023-02-11T10:36:38.855Z,7.37
2023-02-11T10:40:13.551Z,7.32
2023-02-11T10:47:25.617Z,7.20
2023-02-11T10:50:57.689Z,7.14
2023-02-11T10:54:26.563Z,7.08
2023-02-11T10:57:55.996Z,7.03
2023-02-11T11:01:31.238Z,6.99
2023-02-11T11:08:44.674Z,6.90
2023-02-11T11:12:13.685Z,6.84
2023-02-11T11:15:52.271Z,6.79
2023-02-11T11:19:24.004Z,6.75
2023-02-11T11:22:52.846Z,6.72
2023-02-11T11:26:27.748Z,6.70
2023-02-11T11:29:59.701Z,6.64
2023-02-11T11:33:28.277Z,6.59
2023-02-11T11:37:00.151Z,6.52
2023-02-11T11:40:32.893Z,6.47
2023-02-11T11:44:04.917Z,6.40
2023-02-11T11:47:36.962Z,6.35
2023-02-11T11:51:15.246Z,6.28
2023-02-11T11:54:42.543Z,6.19
2023-02-11T11:58:17.655Z,6.14
2023-02-11T12:01:52.838Z,6.10
2023-02-11T12:05:21.650Z,6.07
2023-02-11T12:09:11.347Z,6.03
2023-02-11T12:12:50.552Z,5.99
2023-02-11T12:16:22.500Z,5.98
2023-02-11T12:20:09.942Z,5.93
2023-02-11T12:23:52.920Z,5.90
2023-02-11T12:27:27.640Z,5.86
2023-02-11T12:30:53.641Z,5.83
2023-02-11T12:34:32.293Z,5.80
2023-02-11T12:38:12.772Z,5.77
2023-02-11T12:41:43.022Z,5.73
2023-02-11T12:45:15.162Z,5.71
2023-02-11T12:48:41.291Z,5.70
2023-02-11T12:52:01.711Z,5.70
2023-02-11T12:55:45.960Z,5.68
2023-02-11T12:59:15.005Z,5.65
2023-02-11T13:02:44.061Z,5.62
2023-02-11T13:06:25.379Z,5.59
2023-02-11T13:10:01.004Z,5.56
2023-02-11T13:13:39.330Z,5.53
2023-02-11T13:17:24.330Z,5.50
2023-02-11T13:21:09.009Z,5.46
2023-02-11T13:24:44.767Z,5.43
2023-02-11T13:28:38.532Z,5.42
2023-02-11T13:32:07.800Z,5.42
2023-02-11T13:35:46.259Z,5.41
2023-02-11T13:39:24.817Z,5.42
2023-02-11T13:42:53.942Z,5.43
2023-02-11T13:46:21.515Z,5.43
2023-02-11T13:49:50.613Z,5.44
2023-02-11T13:53:23.060Z,5.43
2023-02-11T13:56:55.474Z,5.42
2023-02-11T14:00:27.836Z,5.42
2023-02-11T14:04:10.440Z,5.39
2023-02-11T14:07:36.769Z,5.38
2023-02-11T14:11:24.548Z,5.35
2023-02-11T14:15:06.018Z,5.33
2023-02-11T14:18:36.514Z,5.31
2023-02-11T14:22:14.487Z,5.32
2023-02-11T14:25:43.827Z,5.32
2023-02-11T14:29:13.452Z,5.31
2023-02-11T14:33:03.910Z,5.32
2023-02-11T14:36:33.857Z,5.32
2023-02-11T14:40:06.150Z,5.31
2023-02-11T14:43:26.354Z,5.30
2023-02-11T14:46:57.526Z,5.30
2023-02-11T14:50:26.809Z,5.29
2023-02-11T14:53:56.083Z,5.32
2023-02-11T14:57:25.228Z,5.34
2023-02-11T15:01:02.989Z,5.37
2023-02-11T15:04:35.296Z,5.41
2023-02-11T15:08:09.920Z,5.46
2023-02-11T15:11:39.334Z,5.51
2023-02-11T15:15:14.670Z,5.54
2023-02-11T15:18:44.047Z,5.57
2023-02-11T15:22:15.912Z,5.61
2023-02-11T15:25:51.394Z,5.65
2023-02-11T15:29:26.401Z,5.68
2023-02-11T15:33:14.161Z,5.73
2023-02-11T15:36:34.420Z,5.77
2023-02-11T15:40:11.246Z,5.81
2023-02-11T15:43:40.581Z,5.87
2023-02-11T15:47:09.529Z,5.90
2023-02-11T15:50:38.695Z,5.94
2023-02-11T15:54:08.160Z,5.98
2023-02-11T15:57:48.799Z,6.01
2023-02-11T16:01:18.186Z,6.05
2023-02-11T16:04:47.534Z,6.09
2023-02-11T16:08:19.637Z,6.12
2023-02-11T16:12:00.890Z,6.16
2023-02-11T16:15:33.580Z,6.21
2023-02-11T16:19:09.325Z,6.27
2023-02-11T16:22:38.384Z,6.31
2023-02-11T16:26:07.368Z,6.38
2023-02-11T16:29:36.166Z,6.43
2023-02-11T16:33:20.338Z,6.48
2023-02-11T16:36:51.955Z,6.53
2023-02-11T16:40:20.624Z,6.61
2023-02-11T16:43:49.406Z,6.67
2023-02-11T16:47:18.168Z,6.74
2023-02-11T16:50:47.547Z,6.80
2023-02-11T16:54:16.410Z,6.86
2023-02-11T16:57:45.277Z,6.93
2023-02-11T17:01:14.417Z,7.00
2023-02-11T17:04:36.188Z,7.07
2023-02-11T17:08:04.942Z,7.13
2023-02-11T17:11:33.738Z,7.18
2023-02-11T17:15:02.747Z,7.22
2023-02-11T17:18:21.724Z,7.28
2023-02-11T17:21:49.259Z,7.33
2023-02-11T17:25:17.934Z,7.39
2023-02-11T17:28:30.619Z,7.42
2023-02-11T17:31:59.978Z,7.45
2023-02-11T17:34:51.813Z,7.49
2023-02-11T17:38:20.603Z,7.52
2023-02-11T17:41:49.736Z,7.52
2023-02-11T17:45:11.376Z,7.55
2023-02-11T17:48:40.058Z,7.58
2023-02-11T17:52:09.663Z,7.61
2023-02-11T17:55:38.687Z,7.65
2023-02-11T17:59:07.571Z,7.69
2023-02-11T18:02:29.468Z,7.74
2023-02-11T18:05:58.444Z,7.78
2023-02-11T18:10:04.556Z,7.81
2023-02-11T18:13:08.294Z,7.83
2023-02-11T18:16:32.548Z,7.85
2023-02-11T18:20:01.483Z,7.86
2023-02-11T18:23:33.030Z,7.90
2023-02-11T18:27:03.177Z,7.95
2023-02-11T18:30:32.542Z,7.99
2023-02-11T18:33:55.063Z,8.01
2023-02-11T18:37:24.004Z,8.03
2023-02-11T18:40:53.612Z,8.05
2023-02-11T18:44:15.019Z,8.07
2023-02-11T18:47:44.254Z,8.08
2023-02-11T18:51:13.361Z,8.10
2023-02-11T18:54:42.262Z,8.16
2023-02-11T18:58:04.150Z,8.24
2023-02-11T19:01:34.501Z,8.33
2023-02-11T19:05:03.625Z,8.40
2023-02-11T19:08:32.486Z,8.44
2023-02-11T19:12:13.728Z,8.52
2023-02-11T19:15:42.654Z,8.57
2023-02-11T19:19:11.709Z,8.60
2023-02-11T19:22:41.634Z,8.57
2023-02-11T19:26:10.692Z,8.57
2023-02-11T19:29:39.514Z,8.60
2023-02-11T19:33:10.146Z,8.65
2023-02-11T19:36:39.232Z,8.72
2023-02-11T19:40:08.346Z,8.78
2023-02-11T19:43:29.903Z,8.80
2023-02-11T19:46:58.801Z,8.84
2023-02-11T19:50:28.218Z,8.86
2023-02-11T19:53:57.015Z,8.86
2023-02-11T19:57:15.763Z,8.88
2023-02-11T20:00:47.709Z,8.90
2023-02-11T20:04:16.700Z,8.89
2023-02-11T20:07:46.256Z,8.88
2023-02-11T20:11:16.221Z,8.92
2023-02-11T20:14:45.847Z,8.99
2023-02-11T20:18:14.933Z,9.06
2023-02-11T20:21:50.577Z,9.13
2023-02-11T20:25:20.124Z,9.20
2023-02-11T20:29:09.792Z,9.26
2023-02-11T20:32:29.287Z,9.30
2023-02-11T20:35:59.943Z,9.35
2023-02-11T20:39:28.568Z,9.38
2023-02-11T20:42:58.245Z,9.40
2023-02-11T20:46:27.249Z,9.43
2023-02-11T20:49:58.789Z,9.44
2023-02-11T20:53:27.548Z,9.44
2023-02-11T20:56:56.563Z,9.43
2023-02-11T21:00:25.821Z,9.43
2023-02-11T21:03:54.647Z,9.39
2023-02-11T21:07:23.718Z,9.37
2023-02-11T21:10:52.543Z,9.37
2023-02-11T21:14:21.440Z,9.35
2023-02-11T21:17:50.133Z,9.31
2023-02-11T21:21:19.022Z,9.27
2023-02-11T21:24:47.714Z,9.21
2023-02-11T21:28:16.479Z,9.17
2023-02-11T21:31:45.468Z,9.15
2023-02-11T21:35:14.430Z,9.14
2023-02-11T21:38:46.246Z,9.13
2023-02-11T21:42:15.054Z,9.10
2023-02-11T21:45:43.948Z,9.09
2023-02-11T21:49:13.757Z,9.08
2023-02-11T21:52:42.708Z,9.07
2023-02-11T21:56:11.651Z,9.07
2023-02-11T21:59:40.668Z,9.04
2023-02-11T22:03:09.912Z,9.02
2023-02-11T22:06:38.641Z,9.00
2023-02-11T22:10:07.369Z,8.99
2023-02-11T22:13:36.775Z,8.98
2023-02-11T22:17:05.746Z,8.95
2023-02-11T22:20:34.505Z,8.94
2023-02-11T22:24:04.140Z,8.93
2023-02-11T22:27:32.893Z,8.93
2023-02-11T22:30:55.407Z,8.94
2023-02-11T22:34:24.727Z,8.96
2023-02-11T22:37:53.549Z,9.00
2023-02-11T22:41:22.620Z,9.04
2023-02-11T22:44:55.135Z,9.09
2023-02-11T22:48:23.933Z,9.13
2023-02-11T22:51:53.297Z,9.15
2023-02-11T22:55:23.288Z,9.16
2023-02-11T22:58:52.323Z,9.18
2023-02-11T23:02:21.676Z,9.22
2023-02-11T23:05:50.908Z,9.26
2023-02-11T23:09:20.319Z,9.29
2023-02-11T23:12:49.429Z,9.31
2023-02-11T23:16:21.928Z,9.34
2023-02-11T23:19:51.214Z,9.36
2023-02-11T23:23:20.097Z,9.37
2023-02-11T23:26:52.272Z,9.37
2023-02-11T23:30:20.981Z,9.33
2023-02-11T23:33:50.565Z,9.28
2023-02-11T23:37:19.443Z,9.27
2023-02-11T23:40:48.680Z,9.24
2023-02-11T23:44:17.868Z,9.20
2023-02-11T23:47:46.775Z,9.17
2023-02-11T23:51:16.030Z,9.16
2023-02-11T23:54:45.485Z,9.13
2023-02-11T23:58:14.866Z,9.11
